Time;durP1;ratioP1;P1;durP2;ratioP2;P2;SDS_P1;SDS_P2;PMS_P1;PMS_P2;Temp;Humidity;BMP_temperature;BMP_pressure;BME280_temperature;BME280_humidity;BME280_pressure;Samples;Min_cycle;Max_cycle;Signal;HPM_P1;HPM_P2
2021/01/07 00:01:49;;;;;;;9.60;6.00;;;;;;;1.42;78.95;98129.06;5070720;28;20030;-63
2021/01/07 00:04:14;;;;;;;8.03;5.63;;;;;;;1.40;78.71;98129.03;5073960;28;20028;-63
2021/01/07 00:06:40;;;;;;;8.70;6.47;;;;;;;1.25;80.04;98128.91;5073499;28;20025;-64
2021/01/07 00:09:06;;;;;;;8.70;6.47;;;;;;;1.15;80.58;98127.97;5071775;28;20722;-62
2021/01/07 00:11:31;;;;;;;8.23;5.87;;;;;;;1.01;81.97;98128.69;5072403;28;20158;-64
2021/01/07 00:13:56;;;;;;;10.47;7.50;;;;;;;1.01;81.28;98134.56;5072208;28;20025;-64
2021/01/07 00:16:22;;;;;;;11.47;7.47;;;;;;;0.89;82.49;98132.75;5073841;28;20449;-63
2021/01/07 00:18:47;;;;;;;13.33;7.23;;;;;;;0.73;84.07;98143.50;5073628;28;20035;-64
2021/01/07 00:21:13;;;;;;;12.13;7.83;;;;;;;0.80;84.10;98137.72;5073466;28;20036;-63
2021/01/07 00:23:39;;;;;;;14.57;8.93;;;;;;;0.72;83.70;98140.97;5074054;28;20032;-63
2021/01/07 00:26:04;;;;;;;14.10;8.23;;;;;;;0.56;85.08;98137.41;5073988;28;20027;-63
2021/01/07 00:28:30;;;;;;;13.80;8.77;;;;;;;0.49;85.29;98137.31;5072532;28;20353;-64
2021/01/07 00:30:55;;;;;;;13.27;7.33;;;;;;;0.43;85.62;98143.13;5074447;28;20028;-63
2021/01/07 00:33:20;;;;;;;12.03;9.07;;;;;;;0.33;86.07;98151.41;5073744;28;20051;-63
2021/01/07 00:35:46;;;;;;;10.80;8.13;;;;;;;0.36;85.85;98149.75;5073065;28;20423;-63
2021/01/07 00:38:11;;;;;;;16.60;11.10;;;;;;;0.42;86.02;98149.00;5074202;28;20024;-63
2021/01/07 00:40:37;;;;;;;13.70;8.20;;;;;;;0.62;83.50;98147.56;5073442;28;20108;-63
2021/01/07 00:43:04;;;;;;;11.10;7.90;;;;;;;0.69;83.08;98151.84;5073237;28;20017;-63
2021/01/07 00:45:31;;;;;;;9.07;5.97;;;;;;;0.87;82.27;98144.50;5074142;28;20035;-63
2021/01/07 00:47:56;;;;;;;7.57;5.67;;;;;;;0.99;81.21;98143.78;5073719;28;20025;-63
2021/01/07 00:50:23;;;;;;;8.37;5.30;;;;;;;0.90;81.73;98143.69;5077022;28;20502;-63
2021/01/07 00:52:48;;;;;;;8.87;6.40;;;;;;;0.90;82.13;98152.09;5077568;28;20040;-63
2021/01/07 00:55:15;;;;;;;8.80;6.63;;;;;;;0.93;81.86;98150.47;5077957;28;20386;-63
2021/01/07 00:57:40;;;;;;;9.13;6.00;;;;;;;0.80;82.34;98162.94;5078023;28;20036;-63
2021/01/07 01:00:17;;;;;;;8.57;5.80;;;;;;;0.89;82.16;98168.06;5077162;28;20082;-63
2021/01/07 01:02:43;;;;;;;8.67;6.00;;;;;;;0.87;82.32;98169.75;5076903;28;20050;-63
2021/01/07 01:05:09;;;;;;;7.80;5.67;;;;;;;0.89;81.99;98173.13;5076863;28;20025;-63
2021/01/07 01:07:35;;;;;;;7.63;5.53;;;;;;;0.85;81.86;98176.44;5077206;28;20285;-63
2021/01/07 01:10:01;;;;;;;8.67;6.10;;;;;;;0.89;81.86;98170.59;5069266;28;20370;-63
2021/01/07 01:12:27;;;;;;;8.10;5.87;;;;;;;0.85;81.88;98180.63;5057530;28;20032;-63
2021/01/07 01:14:52;;;;;;;9.43;5.87;;;;;;;0.91;81.53;98190.81;5056096;28;20063;-63
2021/01/07 01:17:18;;;;;;;8.03;5.67;;;;;;;0.95;81.17;98179.91;5073209;28;20462;-63
2021/01/07 01:19:43;;;;;;;9.13;5.53;;;;;;;0.87;81.77;98194.97;5076688;28;20104;-64
2021/01/07 01:22:10;;;;;;;7.23;5.87;;;;;;;0.87;82.01;98184.03;5075523;28;20115;-63
2021/01/07 01:24:35;;;;;;;8.47;5.60;;;;;;;0.75;82.55;98187.25;5065924;28;20450;-63
2021/01/07 01:27:01;;;;;;;7.63;5.40;;;;;;;0.79;82.67;98185.63;5066245;28;20025;-63
2021/01/07 01:29:28;;;;;;;9.60;6.40;;;;;;;0.75;82.71;98189.78;5076108;28;20029;-63
2021/01/07 01:31:53;;;;;;;7.20;5.40;;;;;;;0.65;82.83;98187.97;5075772;28;20024;-63
2021/01/07 01:34:20;;;;;;;7.27;5.27;;;;;;;0.70;82.83;98196.44;5076857;28;20514;-63
2021/01/07 01:36:46;;;;;;;6.43;4.90;;;;;;;0.70;82.53;98198.09;5075640;28;20055;-63
2021/01/07 01:39:13;;;;;;;8.40;5.70;;;;;;;0.67;82.96;98193.88;5076168;28;20025;-63
2021/01/07 01:41:46;;;;;;;7.53;5.27;;;;;;;0.79;82.95;98196.56;5075489;28;20021;-63
2021/01/07 01:44:12;;;;;;;6.83;4.83;;;;;;;0.76;82.58;98194.00;5075469;28;20024;-63
2021/01/07 01:46:38;;;;;;;6.73;4.60;;;;;;;0.69;82.49;98201.44;5075710;28;20026;-63
2021/01/07 01:49:05;;;;;;;6.27;5.20;;;;;;;0.71;82.59;98195.63;5076012;28;20115;-64
2021/01/07 01:51:31;;;;;;;6.40;4.90;;;;;;;0.63;83.36;98204.75;5075880;28;20113;-64
2021/01/07 01:53:57;;;;;;;11.30;6.10;;;;;;;0.63;83.55;98204.75;5075550;28;20028;-63
2021/01/07 01:56:23;;;;;;;7.57;5.30;;;;;;;0.64;84.01;98203.91;5076031;28;20085;-63
2021/01/07 01:58:50;;;;;;;9.60;5.50;;;;;;;0.64;84.03;98208.09;5075133;28;20036;-62
2021/01/07 02:01:16;;;;;;;7.50;5.50;;;;;;;0.54;85.04;98209.69;5074828;28;20021;-62
2021/01/07 02:03:43;;;;;;;8.23;6.13;;;;;;;0.53;85.14;98209.66;5073723;28;20361;-62
2021/01/07 02:06:14;;;;;;;9.53;6.40;;;;;;;0.51;86.10;98207.09;5075789;28;20020;-62
2021/01/07 02:08:42;;;;;;;10.03;5.90;;;;;;;0.50;86.20;98210.47;5075010;28;20016;-62
2021/01/07 02:11:09;;;;;;;11.27;6.77;;;;;;;0.49;86.21;98211.28;5075742;28;20112;-64
2021/01/07 02:13:35;;;;;;;9.03;7.03;;;;;;;0.49;85.87;98215.47;5074710;28;20024;-62
2021/01/07 02:16:00;;;;;;;12.27;7.33;;;;;;;0.47;86.51;98209.59;5076306;28;20085;-62
2021/01/07 02:18:26;;;;;;;11.53;7.80;;;;;;;0.40;86.47;98216.19;5074660;28;20343;-62
2021/01/07 02:20:51;;;;;;;13.57;7.27;;;;;;;0.40;86.95;98208.63;5075896;28;20037;-62
2021/01/07 02:23:17;;;;;;;7.50;5.90;;;;;;;0.47;86.62;98212.94;5074224;28;20060;-62
2021/01/07 02:25:42;;;;;;;9.10;6.27;;;;;;;0.51;86.92;98213.84;5076792;28;20368;-62
2021/01/07 02:28:08;;;;;;;6.83;4.57;;;;;;;0.62;85.26;98209.78;5074664;28;20020;-63
2021/01/07 02:30:33;;;;;;;6.10;4.57;;;;;;;0.70;84.35;98219.13;5056151;28;20107;-62
2021/01/07 02:32:59;;;;;;;8.00;5.70;;;;;;;0.68;84.34;98218.25;5054636;28;20418;-63
2021/01/07 02:35:25;;;;;;;6.83;5.50;;;;;;;0.58;84.76;98218.97;5074194;28;20040;-63
2021/01/07 02:37:50;;;;;;;9.27;6.13;;;;;;;0.52;85.13;98220.56;5074775;28;20025;-62
2021/01/07 02:40:16;;;;;;;10.97;7.57;;;;;;;0.52;85.27;98226.44;5074814;28;20116;-62
2021/01/07 02:42:41;;;;;;;11.50;7.40;;;;;;;0.48;85.45;98227.25;5075114;28;20104;-63
2021/01/07 02:45:08;;;;;;;15.67;8.33;;;;;;;0.49;85.89;98223.91;5074590;28;20028;-62
2021/01/07 02:47:34;;;;;;;10.93;7.77;;;;;;;0.46;86.45;98226.38;5073759;28;20096;-62
2021/01/07 02:50:00;;;;;;;12.63;7.63;;;;;;;0.43;86.20;98223.78;5068348;28;20055;-62
2021/01/07 02:52:25;;;;;;;10.47;6.97;;;;;;;0.45;86.19;98224.69;5061520;28;20434;-62
2021/01/07 02:54:51;;;;;;;8.40;6.27;;;;;;;0.44;86.34;98228.88;5069830;28;20020;-62
2021/01/07 02:57:16;;;;;;;10.03;6.67;;;;;;;0.42;86.69;98222.94;5074858;28;20437;-62
2021/01/07 02:59:41;;;;;;;11.13;7.80;;;;;;;0.44;86.47;98233.06;5073919;28;20028;-62
2021/01/07 03:02:07;;;;;;;10.23;6.27;;;;;;;0.49;86.88;98221.38;5074321;28;20035;-62
2021/01/07 03:04:32;;;;;;;10.93;6.40;;;;;;;0.61;85.96;98230.78;5073969;28;20021;-62
2021/01/07 03:06:58;;;;;;;10.83;6.67;;;;;;;0.64;86.13;98231.66;5075393;28;20036;-62
2021/01/07 03:09:23;;;;;;;11.33;6.60;;;;;;;0.62;85.74;98225.75;5073932;28;20095;-62
2021/01/07 03:11:49;;;;;;;8.40;6.10;;;;;;;0.63;85.80;98229.97;5074671;28;20449;-62
2021/01/07 03:14:14;;;;;;;8.47;7.00;;;;;;;0.54;85.95;98229.84;5073303;28;20024;-62
2021/01/07 03:16:39;;;;;;;9.43;5.87;;;;;;;0.54;85.88;98229.84;5075227;28;20028;-62
2021/01/07 03:19:05;;;;;;;9.07;5.93;;;;;;;0.58;85.76;98229.06;5073863;28;20184;-62
2021/01/07 03:21:30;;;;;;;5.90;4.57;;;;;;;0.66;85.57;98230.03;5074216;28;20028;-62
2021/01/07 03:23:55;;;;;;;9.83;5.67;;;;;;;0.65;84.77;98235.03;5073709;28;20027;-63
2021/01/07 03:26:21;;;;;;;7.77;5.80;;;;;;;0.57;85.55;98239.97;5074196;28;20028;-62
2021/01/07 03:28:47;;;;;;;7.83;5.67;;;;;;;0.53;85.27;98233.19;5074570;28;20020;-62
2021/01/07 03:31:12;;;;;;;8.00;4.50;;;;;;;0.53;85.84;98230.69;5073783;28;20052;-62
2021/01/07 03:33:37;;;;;;;5.23;3.90;;;;;;;0.64;85.05;98239.22;5073908;28;20048;-62
2021/01/07 03:36:03;;;;;;;4.60;3.50;;;;;;;0.80;83.53;98238.63;5073344;28;20469;-62
2021/01/07 03:38:29;;;;;;;5.27;3.80;;;;;;;0.94;82.15;98236.25;5074154;28;20033;-62
2021/01/07 03:40:54;;;;;;;3.87;3.23;;;;;;;0.96;82.00;98242.19;5073337;28;20403;-62
2021/01/07 03:43:20;;;;;;;4.43;2.87;;;;;;;1.09;81.75;98240.66;5073569;28;20547;-62
2021/01/07 03:45:45;;;;;;;3.97;2.97;;;;;;;0.98;81.50;98243.03;5073326;28;20020;-62
2021/01/07 03:48:11;;;;;;;5.30;3.33;;;;;;;1.05;81.60;98242.28;5073123;28;20103;-62
2021/01/07 03:50:36;;;;;;;4.63;2.93;;;;;;;0.98;81.81;98243.03;5074023;28;20085;-62
2021/01/07 03:53:02;;;;;;;3.40;3.10;;;;;;;1.06;81.81;98248.19;5073036;28;20051;-62
2021/01/07 03:55:27;;;;;;;3.20;2.70;;;;;;;1.01;82.25;98248.13;5074097;28;20120;-62
2021/01/07 03:57:53;;;;;;;3.10;2.50;;;;;;;1.05;81.59;98249.88;5072778;28;20012;-62
2021/01/07 04:00:19;;;;;;;4.07;3.43;;;;;;;1.01;81.58;98252.34;5074218;28;20028;-62
2021/01/07 04:02:45;;;;;;;3.30;3.00;;;;;;;0.91;81.58;98256.41;5072265;28;20086;-62
2021/01/07 04:05:10;;;;;;;4.37;3.07;;;;;;;1.00;81.37;98254.00;5074345;28;20111;-62
2021/01/07 04:07:37;;;;;;;4.50;3.50;;;;;;;1.02;81.42;98251.50;5073121;28;20476;-62
2021/01/07 04:10:05;;;;;;;3.23;2.80;;;;;;;0.93;82.05;98260.63;5073214;28;20115;-62
2021/01/07 04:12:31;;;;;;;3.77;2.93;;;;;;;1.06;81.27;98253.25;5072873;28;20024;-62
2021/01/07 04:14:56;;;;;;;3.83;3.27;;;;;;;1.09;81.39;98255.78;5070420;28;20334;-62
2021/01/07 04:17:21;;;;;;;3.93;3.20;;;;;;;0.93;82.10;98256.44;5073773;28;20032;-62
2021/01/07 04:19:47;;;;;;;3.33;2.83;;;;;;;0.99;81.81;98264.06;5073648;28;20039;-62
2021/01/07 04:22:12;;;;;;;3.97;3.33;;;;;;;0.98;81.20;98247.25;5073305;28;20108;-62
2021/01/07 04:24:37;;;;;;;4.50;3.27;;;;;;;0.97;81.53;98251.44;5076770;28;20460;-62
2021/01/07 04:27:04;;;;;;;4.43;3.17;;;;;;;0.86;81.85;98252.97;5078043;28;20085;-63
2021/01/07 04:29:29;;;;;;;3.57;3.03;;;;;;;0.89;82.41;98258.91;5078345;28;20031;-62
2021/01/07 04:31:55;;;;;;;3.70;3.30;;;;;;;0.93;82.20;98264.00;5078307;28;20047;-62
2021/01/07 04:34:20;;;;;;;4.33;3.13;;;;;;;0.89;82.24;98258.91;5077274;28;20059;-63
2021/01/07 04:36:46;;;;;;;4.70;3.60;;;;;;;0.91;82.21;98259.78;5077254;28;20044;-62
2021/01/07 04:39:11;;;;;;;5.07;3.50;;;;;;;0.88;82.08;98269.84;5077022;28;20039;-62
2021/01/07 04:41:36;;;;;;;5.73;4.37;;;;;;;0.87;82.14;98270.66;5076876;28;20028;-62
2021/01/07 04:44:02;;;;;;;7.27;3.97;;;;;;;0.80;82.95;98271.41;5076794;28;20433;-62
2021/01/07 04:46:28;;;;;;;5.27;4.10;;;;;;;0.79;82.53;98271.38;5077321;28;20100;-62
2021/01/07 04:48:53;;;;;;;4.30;3.57;;;;;;;0.83;82.95;98273.97;5076181;28;20024;-62
2021/01/07 04:51:19;;;;;;;4.57;3.53;;;;;;;0.80;82.46;98273.94;5077012;28;20035;-62
2021/01/07 04:53:47;;;;;;;5.13;3.80;;;;;;;0.78;82.96;98275.59;5076178;28;20024;-62
2021/01/07 04:56:13;;;;;;;5.03;3.83;;;;;;;0.71;83.42;98283.06;5077024;28;20096;-64
2021/01/07 04:58:38;;;;;;;5.13;3.63;;;;;;;0.65;84.48;98282.94;5076225;28;20099;-62
2021/01/07 05:01:04;;;;;;;4.37;3.50;;;;;;;0.72;83.19;98287.28;5077639;28;20024;-62
2021/01/07 05:03:34;;;;;;;5.80;3.43;;;;;;;0.77;83.12;98278.94;5075808;28;20031;-62
2021/01/07 05:05:59;;;;;;;5.10;4.37;;;;;;;0.65;83.51;98283.81;5077213;28;20021;-62
2021/01/07 05:08:25;;;;;;;5.70;4.47;;;;;;;0.72;83.21;98284.75;5075826;28;20025;-62
2021/01/07 05:10:51;;;;;;;4.93;3.80;;;;;;;0.69;83.48;98288.06;5077059;28;20036;-62
2021/01/07 05:13:17;;;;;;;5.63;4.10;;;;;;;0.70;83.50;98288.91;5074409;28;20039;-62
2021/01/07 05:15:43;;;;;;;4.50;3.47;;;;;;;0.62;83.95;98291.34;5077262;28;20043;-62
2021/01/07 05:18:09;;;;;;;4.67;3.87;;;;;;;0.59;84.03;98293.81;5076057;28;20024;-62
2021/01/07 05:20:35;;;;;;;5.33;4.03;;;;;;;0.56;84.43;98293.75;5076640;28;20107;-62
2021/01/07 05:23:01;;;;;;;4.80;4.30;;;;;;;0.54;85.00;98299.63;5075787;28;20104;-63
2021/01/07 05:25:31;;;;;;;6.90;4.53;;;;;;;0.53;85.11;98305.47;5076360;28;20162;-62
2021/01/07 05:28:06;;;;;;;4.43;3.93;;;;;;;0.50;85.58;98305.44;5076052;28;20032;-63
2021/01/07 05:30:33;;;;;;;4.90;3.67;;;;;;;0.45;85.68;98313.78;5076367;28;20032;-63
2021/01/07 05:33:07;;;;;;;5.70;4.47;;;;;;;0.44;85.92;98316.25;5075851;28;20020;-63
2021/01/07 05:35:34;;;;;;;6.13;4.00;;;;;;;0.36;86.35;98317.81;5071678;28;20135;-63
2021/01/07 05:38:03;;;;;;;5.73;5.00;;;;;;;0.37;86.07;98324.56;5075838;28;20139;-63
2021/01/07 05:40:29;;;;;;;6.17;4.90;;;;;;;0.32;86.59;98318.59;5075812;28;20085;-63
2021/01/07 05:42:58;;;;;;;7.63;6.20;;;;;;;0.27;86.35;98318.53;5075931;28;20103;-63
2021/01/07 05:45:33;;;;;;;6.57;4.63;;;;;;;0.25;86.70;98325.22;5075391;28;20029;-63
2021/01/07 05:47:59;;;;;;;9.63;6.85;;;;;;;0.21;87.34;98320.09;5076160;28;20051;-63
2021/01/07 05:50:28;;;;;;;10.87;7.83;;;;;;;0.19;87.47;98319.22;5075438;28;20043;-63
2021/01/07 05:52:54;;;;;;;10.67;7.67;;;;;;;0.18;87.13;98317.50;5076546;28;20036;-63
2021/01/07 05:55:20;;;;;;;11.33;8.17;;;;;;;0.15;87.48;98320.00;5073980;28;20109;-63
2021/01/07 05:57:46;;;;;;;10.40;7.60;;;;;;;0.18;87.47;98325.94;5075841;28;20052;-63
2021/01/07 06:00:16;;;;;;;10.33;8.20;;;;;;;0.23;87.57;98323.50;5074308;28;20051;-63
2021/01/07 06:02:44;;;;;;;10.80;7.93;;;;;;;0.14;87.57;98324.19;5076340;28;20056;-63
2021/01/07 06:05:12;;;;;;;11.43;6.93;;;;;;;0.13;87.98;98324.19;5074528;28;20035;-63
2021/01/07 06:07:38;;;;;;;10.87;6.33;;;;;;;0.17;87.63;98328.44;5075635;28;20071;-63
2021/01/07 06:10:06;;;;;;;8.27;5.90;;;;;;;0.28;87.45;98327.78;5074820;28;20078;-63
2021/01/07 06:12:32;;;;;;;7.70;5.87;;;;;;;0.16;86.93;98335.16;5072561;28;20341;-63
2021/01/07 06:15:00;;;;;;;9.83;5.87;;;;;;;0.18;87.31;98333.50;5075038;28;20028;-62
2021/01/07 06:17:28;;;;;;;9.17;5.53;;;;;;;0.20;87.54;98336.03;5074300;28;20326;-62
2021/01/07 06:19:54;;;;;;;7.10;5.30;;;;;;;0.07;87.69;98335.00;5075936;28;20032;-62
2021/01/07 06:22:21;;;;;;;9.20;6.17;;;;;;;0.25;87.42;98334.47;5074245;28;20074;-62
2021/01/07 06:24:54;;;;;;;8.83;5.67;;;;;;;0.22;87.58;98342.78;5075229;28;20422;-62
2021/01/07 06:27:31;;;;;;;8.73;5.20;;;;;;;0.26;87.19;98341.16;5074175;28;20048;-60
2021/01/07 06:29:59;;;;;;;11.03;6.17;;;;;;;0.32;87.61;98344.66;5075889;28;20052;-62
2021/01/07 06:32:28;;;;;;;11.57;6.53;;;;;;;0.26;86.94;98347.06;5073845;28;20027;-62
2021/01/07 06:34:54;;;;;;;8.90;5.97;;;;;;;0.21;86.78;98346.13;5075465;28;20040;-62
2021/01/07 06:37:34;;;;;;;8.27;5.57;;;;;;;0.34;86.74;98352.25;5074711;28;20500;-62
2021/01/07 06:40:08;;;;;;;10.80;6.77;;;;;;;0.32;86.71;98348.84;5075703;28;20149;-63
2021/01/07 06:42:42;;;;;;;13.53;6.73;;;;;;;0.42;86.67;98355.75;5073448;28;20024;-62
2021/01/07 06:45:12;;;;;;;9.30;5.93;;;;;;;0.43;86.64;98359.94;5076028;28;20025;-63
2021/01/07 06:47:39;;;;;;;10.60;6.37;;;;;;;0.40;86.73;98358.25;5073695;28;20059;-63
2021/01/07 06:50:05;;;;;;;9.37;6.27;;;;;;;0.41;86.97;98359.09;5075667;28;20457;-62
2021/01/07 06:52:41;;;;;;;10.97;6.50;;;;;;;0.43;86.93;98367.50;5074243;28;20107;-61
2021/01/07 06:55:12;;;;;;;11.23;6.43;;;;;;;0.42;87.32;98373.41;5074956;28;20093;-63
2021/01/07 06:57:46;;;;;;;9.63;5.80;;;;;;;0.46;86.75;98372.63;5073329;28;20066;-63
2021/01/07 07:00:16;;;;;;;9.60;6.70;;;;;;;0.37;87.15;98375.84;5073657;28;20020;-62
2021/01/07 07:03:03;;;;;;;14.50;8.67;;;;;;;0.49;86.73;98377.72;5073068;28;20025;-62
2021/01/07 07:05:33;;;;;;;16.07;8.50;;;;;;;0.50;86.80;98381.94;5074304;28;20024;-63
2021/01/07 07:08:12;;;;;;;23.00;11.60;;;;;;;0.59;86.44;98378.72;5071523;28;20092;-63
2021/01/07 07:10:37;;;;;;;58.17;25.00;;;;;;;0.46;86.20;98382.72;5073748;28;20021;-63
2021/01/07 07:13:25;;;;;;;48.43;22.90;;;;;;;0.59;86.48;98384.63;5072243;28;20394;-63
2021/01/07 07:15:51;;;;;;;39.07;20.63;;;;;;;0.58;85.80;98387.09;5073641;28;20035;-62
2021/01/07 07:18:26;;;;;;;29.03;17.07;;;;;;;0.67;85.94;98393.16;5073094;28;20020;-61
2021/01/07 07:20:51;;;;;;;;;;;;;;;0.77;85.20;98394.97;5073950;28;20024;-62
2021/01/07 07:23:22;;;;;;;20.70;10.90;;;;;;;0.84;85.00;98396.78;5073093;28;19916;-62
2021/01/07 07:25:55;;;;;;;13.43;8.97;;;;;;;0.89;84.79;98395.16;5071683;28;20048;-62
2021/01/07 07:28:24;;;;;;;18.20;8.70;;;;;;;0.93;84.51;98401.94;5073531;28;20357;-62
2021/01/07 07:30:49;;;;;;;18.73;9.57;;;;;;;0.87;84.43;98399.34;5074091;28;20036;-61
2021/01/07 07:33:35;;;;;;;16.17;8.97;;;;;;;0.99;84.20;98405.41;5073109;28;20033;-61
2021/01/07 07:36:02;;;;;;;11.38;7.55;;;;;;;1.05;84.31;98405.50;5073429;28;20052;-61
2021/01/07 07:38:33;;;;;;;12.50;7.47;;;;;;;1.09;84.27;98399.66;5073218;28;20058;-61
2021/01/07 07:41:01;;;;;;;10.37;6.47;;;;;;;1.12;83.90;98399.72;5072941;28;20021;-61
2021/01/07 07:43:29;;;;;;;9.70;5.97;;;;;;;1.16;83.52;98404.81;5072875;28;20021;-61
2021/01/07 07:45:55;;;;;;;10.13;5.80;;;;;;;1.27;83.52;98405.81;5072915;28;20089;-61
2021/01/07 07:48:24;;;;;;;10.17;5.53;;;;;;;1.47;82.61;98408.63;5074475;28;20107;-61
2021/01/07 07:50:50;;;;;;;8.57;6.23;;;;;;;1.47;82.15;98408.63;5072945;28;20032;-61
2021/01/07 07:53:16;;;;;;;11.97;6.17;;;;;;;1.63;82.30;98408.00;5073617;28;20345;-62
2021/01/07 07:55:42;;;;;;;11.50;5.70;;;;;;;1.65;81.36;98410.53;5072191;28;20052;-61
2021/01/07 07:58:11;;;;;;;8.37;5.73;;;;;;;1.84;80.73;98414.97;5071054;28;20021;-61
2021/01/07 08:00:38;;;;;;;11.00;6.73;;;;;;;2.00;80.09;98416.00;5073666;28;20028;-61
2021/01/07 08:03:04;;;;;;;18.17;8.77;;;;;;;2.18;80.04;98413.69;5073819;28;20031;-61
2021/01/07 08:05:31;;;;;;;77.20;27.23;;;;;;;2.36;78.83;98420.59;5073535;28;20112;-61
2021/01/07 08:07:58;;;;;;;187.30;69.67;;;;;;;2.47;78.25;98411.44;5073622;28;20028;-62
2021/01/07 08:10:25;;;;;;;175.53;63.77;;;;;;;2.59;77.37;98407.31;5072071;28;20457;-61
2021/01/07 08:12:51;;;;;;;71.90;28.27;;;;;;;2.69;76.11;98409.09;5072307;28;20547;-61
2021/01/07 08:15:30;;;;;;;36.40;15.03;;;;;;;2.83;75.29;98411.75;5073507;28;20349;-61
2021/01/07 08:18:16;;;;;;;18.30;8.50;;;;;;;2.78;74.32;98408.34;5071421;28;20120;-62
2021/01/07 08:20:41;;;;;;;11.55;5.63;;;;;;;2.83;73.30;98410.91;5073259;28;20039;-61
2021/01/07 08:23:12;;;;;;;15.20;7.20;;;;;;;2.95;72.93;98406.78;5073596;28;20349;-62
2021/01/07 08:25:39;;;;;;;14.83;8.00;;;;;;;2.95;72.09;98406.78;5073647;28;20024;-62
2021/01/07 08:28:43;;;;;;;7.80;4.97;;;;;;;3.13;72.67;98414.53;5073391;28;20029;-61
2021/01/07 08:31:19;;;;;;;6.90;3.93;;;;;;;3.22;70.61;98401.91;5012191;28;20037;-61
2021/01/07 08:33:50;;;;;;;5.30;3.70;;;;;;;3.44;70.21;98400.34;5012161;28;20042;-61
2021/01/07 08:36:19;;;;;;;3.70;3.27;;;;;;;3.69;68.08;98407.22;5011113;28;20042;-61
2021/01/07 08:38:52;;;;;;;3.77;3.23;;;;;;;3.51;67.86;98411.38;5008140;28;20498;-61
2021/01/07 08:41:23;;;;;;;5.13;2.80;;;;;;;3.81;66.49;98414.06;5007737;28;20368;-62
2021/01/07 08:43:53;;;;;;;3.37;3.07;;;;;;;3.75;66.87;98408.09;5008799;28;20041;-62
2021/01/07 08:46:22;;;;;;;3.07;2.50;;;;;;;4.04;64.36;98406.50;5008569;28;20161;-61
2021/01/07 08:49:01;;;;;;;2.77;2.17;;;;;;;4.22;63.75;98411.66;5010846;28;20038;-61
2021/01/07 08:51:28;;;;;;;2.93;2.20;;;;;;;4.24;62.57;98415.06;5011363;28;20184;-62
2021/01/07 08:53:55;;;;;;;3.47;2.70;;;;;;;4.43;62.31;98416.75;5006941;28;20140;-61
2021/01/07 08:56:30;;;;;;;5.53;3.70;;;;;;;4.81;62.53;98415.94;5007249;28;20037;-62
2021/01/07 08:59:14;;;;;;;;;;;;;;;4.49;62.43;98414.25;5008240;28;20045;-62
2021/01/07 09:01:39;;;;;;;3.03;2.70;;;;;;;4.14;64.02;98415.84;5005715;28;19934;-62
2021/01/07 09:04:40;;;;;;;3.23;2.23;;;;;;;4.31;64.20;98420.97;5014891;28;20026;-62
2021/01/07 09:07:14;;;;;;;2.50;2.30;;;;;;;4.37;64.07;98424.34;5071960;28;20082;-62
2021/01/07 09:09:44;;;;;;;4.95;2.20;;;;;;;4.46;63.18;98410.84;5074319;28;20089;-62
2021/01/07 09:12:12;;;;;;;3.17;2.40;;;;;;;4.31;64.07;98420.97;5076663;28;20112;-62
2021/01/07 09:15:09;;;;;;;2.77;2.57;;;;;;;4.72;61.92;98424.41;5076022;28;20056;-62
2021/01/07 09:17:39;;;;;;;3.17;2.40;;;;;;;4.51;61.71;98424.38;5072117;28;20097;-62
2021/01/07 09:20:07;;;;;;;3.10;2.73;;;;;;;4.64;62.01;98422.72;5076481;28;20397;-61
2021/01/07 09:22:32;;;;;;;4.13;2.70;;;;;;;4.44;63.29;98418.47;5071457;28;20065;-62
2021/01/07 09:24:59;;;;;;;2.97;2.10;;;;;;;4.55;62.20;98418.47;5074901;28;20449;-62
2021/01/07 09:27:24;;;;;;;2.67;2.17;;;;;;;4.66;61.98;98426.13;5071171;28;20035;-62
2021/01/07 09:29:51;;;;;;;2.50;1.77;;;;;;;4.72;61.59;98415.94;5075044;28;20028;-62
2021/01/07 09:32:16;;;;;;;3.60;2.20;;;;;;;4.78;60.40;98424.44;5074554;28;20028;-62
2021/01/07 09:34:43;;;;;;;3.30;2.50;;;;;;;4.91;61.36;98427.81;5074477;28;20401;-62
2021/01/07 09:37:20;;;;;;;2.50;2.17;;;;;;;4.95;61.22;98416.81;5067256;28;20032;-62
2021/01/07 09:39:47;;;;;;;7.73;5.37;;;;;;;5.06;63.50;98418.50;5067408;28;20017;-62
2021/01/07 09:42:13;;;;;;;10.43;8.13;;;;;;;5.05;67.20;98429.50;5071320;28;20067;-62
2021/01/07 09:44:39;;;;;;;12.57;7.53;;;;;;;4.76;68.24;98420.19;5069011;28;20032;-62
2021/01/07 09:47:06;;;;;;;14.47;8.10;;;;;;;5.20;67.95;98417.63;5073028;28;20034;-62
2021/01/07 09:49:32;;;;;;;7.40;6.43;;;;;;;4.74;68.34;98421.88;5071104;28;20029;-62
2021/01/07 09:51:58;;;;;;;8.67;6.70;;;;;;;5.06;68.16;98415.09;5073797;28;20078;-62
2021/01/07 09:54:24;;;;;;;9.93;6.87;;;;;;;5.06;67.76;98418.50;5073685;28;20024;-62
2021/01/07 09:56:52;;;;;;;8.37;6.30;;;;;;;5.24;67.44;98425.25;5075793;28;20024;-62
2021/01/07 09:59:17;;;;;;;10.43;6.80;;;;;;;5.18;66.99;98420.16;5069744;28;20406;-62
2021/01/07 10:01:44;;;;;;;8.67;5.87;;;;;;;5.39;66.54;98425.22;5075362;28;20029;-62
2021/01/07 10:04:09;;;;;;;9.13;6.23;;;;;;;5.56;66.49;98422.63;5071027;28;20025;-62
2021/01/07 10:06:35;;;;;;;7.50;5.60;;;;;;;5.41;65.98;98423.53;5071611;28;20063;-62
2021/01/07 10:09:00;;;;;;;7.90;5.83;;;;;;;5.21;66.44;98425.28;5076132;28;20024;-62
2021/01/07 10:11:26;;;;;;;6.47;5.03;;;;;;;5.16;66.80;98414.25;5072347;28;20025;-62
2021/01/07 10:13:51;;;;;;;7.77;5.53;;;;;;;5.31;66.34;98416.75;5065815;28;20025;-61
2021/01/07 10:16:17;;;;;;;7.13;5.17;;;;;;;5.76;64.74;98420.06;5070698;28;20028;-62
2021/01/07 10:18:42;;;;;;;5.60;5.07;;;;;;;5.80;65.24;98416.66;5070608;28;20042;-62
2021/01/07 10:21:10;;;;;;;10.50;6.50;;;;;;;6.23;64.68;98413.09;5071406;28;20086;-62
2021/01/07 10:23:40;;;;;;;9.03;5.10;;;;;;;6.40;62.72;98401.13;5072793;28;20043;-61
2021/01/07 10:26:05;;;;;;;5.97;4.67;;;;;;;6.73;61.18;98405.13;5074034;28;20023;-62
2021/01/07 10:28:31;;;;;;;9.53;6.37;;;;;;;6.93;60.79;98407.53;5074734;28;20024;-61
2021/01/07 10:30:56;;;;;;;11.93;6.57;;;;;;;6.96;61.50;98404.13;5070798;28;20331;-61
2021/01/07 10:33:22;;;;;;;9.33;6.67;;;;;;;6.89;61.50;98408.41;5072403;28;20031;-61
2021/01/07 10:35:48;;;;;;;8.17;6.20;;;;;;;6.94;60.69;98406.66;5072242;28;20478;-61
2021/01/07 10:38:23;;;;;;;7.13;5.37;;;;;;;7.01;61.49;98405.75;5074175;28;20024;-61
2021/01/07 10:40:50;;;;;;;8.50;5.95;;;;;;;6.93;62.68;98407.53;5072661;28;20099;-61
2021/01/07 10:43:19;;;;;;;7.37;6.37;;;;;;;7.16;62.83;98408.19;5073295;28;20033;-61
2021/01/07 10:45:50;;;;;;;7.53;5.77;;;;;;;7.22;62.17;98400.47;5072718;28;20048;-62
2021/01/07 10:48:20;;;;;;;11.23;6.90;;;;;;;7.36;60.95;98397.78;5073671;28;20038;-62
2021/01/07 10:50:46;;;;;;;7.57;6.17;;;;;;;7.39;59.34;98397.75;5073905;28;20040;-61
2021/01/07 10:53:39;;;;;;;8.50;6.37;;;;;;;7.38;59.69;98401.19;5073329;28;20034;-63
2021/01/07 10:56:33;;;;;;;8.60;6.43;;;;;;;6.64;61.33;98397.56;5069273;28;20130;-63
2021/01/07 10:59:24;;;;;;;7.27;5.33;;;;;;;6.64;62.29;98399.25;5067172;28;20109;-63
2021/01/07 11:02:11;;;;;;;5.57;4.93;;;;;;;6.86;60.68;98396.53;5070294;28;20032;-61
2021/01/07 11:04:42;;;;;;;9.23;5.67;;;;;;;6.87;60.21;98397.41;5071930;28;20032;-62
2021/01/07 11:07:23;;;;;;;3.70;2.70;;;;;;;6.72;54.42;98389.84;5073732;28;20029;-62
2021/01/07 11:09:54;;;;;;;2.50;1.50;;;;;;;6.46;53.02;98387.50;5069982;28;20040;-62
2021/01/07 11:12:22;;;;;;;2.33;2.13;;;;;;;6.37;54.76;98392.63;5069067;28;20028;-62
2021/01/07 11:15:06;;;;;;;1.63;1.50;;;;;;;6.26;55.76;98385.06;5070424;28;20029;-62
2021/01/07 11:17:36;;;;;;;1.30;1.10;;;;;;;6.28;54.99;98391.00;5072405;28;20457;-62
2021/01/07 11:20:05;;;;;;;2.33;1.80;;;;;;;6.24;54.68;98396.94;5072555;28;20036;-63
2021/01/07 11:22:34;;;;;;;1.87;1.50;;;;;;;6.32;54.76;98387.56;5071329;28;20033;-61
2021/01/07 11:25:01;;;;;;;4.63;1.83;;;;;;;6.25;53.17;98383.38;5074078;28;20024;-62
2021/01/07 11:27:30;;;;;;;2.13;1.53;;;;;;;5.95;54.18;98384.38;5063426;28;20016;-62
2021/01/07 11:29:55;;;;;;;2.70;1.50;;;;;;;5.80;54.43;98378.50;5067578;28;20036;-61
2021/01/07 11:32:21;;;;;;;1.63;1.10;;;;;;;5.65;54.28;98371.75;5066369;28;20036;-61
2021/01/07 11:34:48;;;;;;;3.63;1.50;;;;;;;5.79;55.28;98384.44;5068234;28;20044;-64
2021/01/07 11:37:30;;;;;;;2.83;1.57;;;;;;;5.43;57.82;98386.22;5068827;28;20040;-64
2021/01/07 11:39:58;;;;;;;1.57;1.30;;;;;;;5.22;57.38;98385.47;5071601;28;20039;-64
2021/01/07 11:42:30;;;;;;;1.00;0.93;;;;;;;5.19;57.68;98391.38;5066346;28;20028;-64
2021/01/07 11:45:03;;;;;;;1.50;1.20;;;;;;;5.16;59.07;98399.00;5066099;28;20366;-65